Time;durP1;ratioP1;P1;durP2;ratioP2;P2;SDS_P1;SDS_P2;PMS_P1;PMS_P2;Temp;Humidity;BMP_temperature;BMP_pressure;BME280_temperature;BME280_humidity;BME280_pressure;Samples;Min_cycle;Max_cycle;Signal;HPM_P1;HPM_P2
2022/10/25 00:00:41;;;;;;;;;;;;;;;9.22;94.33;97543.61;107654;1268;69307;-71
2022/10/25 00:03:28;;;;;;;;;;;;;;;9.16;93.41;97545.46;107610;1264;59688;-69
2022/10/25 00:05:57;;;;;;;;;;;;;;;9.15;93.97;97541.73;107643;1268;59781;-69
2022/10/25 00:08:27;;;;;;;;;;;;;;;9.13;95.28;97541.15;107679;1269;71401;-69
2022/10/25 00:10:58;;;;;;;;;;;;;;;9.12;94.82;97536.21;107642;1268;69249;-69
2022/10/25 00:13:28;;;;;;;;;;;;;;;9.11;95.68;97544.08;107669;1266;69269;-69
2022/10/25 00:15:57;;;;;;;;;;;;;;;9.10;95.64;97541.56;107658;1269;59772;-69
2022/10/25 00:18:27;;;;;;;;;;;;;;;9.07;96.25;97539.99;107683;1268;59635;-69
2022/10/25 00:20:57;;;;;;;;;;;;;;;9.05;96.93;97541.50;107625;1266;71959;-69
2022/10/25 00:23:26;;;;;;;;;;;;;;;9.05;97.03;97536.83;107697;1268;69083;-69
2022/10/25 00:26:00;;;;;;;;;;;;;;;9.05;96.97;97533.32;107675;1266;69366;-69
2022/10/25 00:28:30;;;;;;;;;;;;;;;9.06;96.42;97526.52;107678;1265;59764;-69
2022/10/25 00:31:07;;;;;;;;;;;;;;;9.05;95.99;97522.89;107710;1264;59766;-69
2022/10/25 00:33:37;;;;;;;;;;;;;;;9.06;96.01;97521.80;107671;1266;72154;-69
2022/10/25 00:36:08;;;;;;;;;;;;;;;9.07;95.99;97519.86;107649;1268;69118;-69
2022/10/25 00:38:39;;;;;;;;;;;;;;;9.07;94.40;97514.97;107697;1265;69282;-69
2022/10/25 00:41:10;;;;;;;;;;;;;;;9.09;94.86;97518.52;107648;1264;59682;-69
2022/10/25 00:43:40;;;;;;;;;;;;;;;9.10;95.48;97520.52;107630;1269;59709;-69
2022/10/25 00:46:10;;;;;;;;;;;;;;;9.11;96.71;97517.13;107658;1268;71450;-69
2022/10/25 00:48:41;;;;;;;;;;;;;;;9.12;95.68;97511.55;107630;1265;69535;-69
2022/10/25 00:51:11;;;;;;;;;;;;;;;9.12;95.42;97510.27;107637;1265;69390;-69
2022/10/25 00:53:41;;;;;;;;;;;;;;;9.12;95.80;97509.06;107610;1267;59805;-69
2022/10/25 00:56:24;;;;;;;;;;;;;;;9.11;92.86;97505.35;107657;1270;59699;-69
2022/10/25 00:58:56;;;;;;;;;;;;;;;9.10;92.11;97502.95;107622;1261;70463;-69
2022/10/25 01:01:26;;;;;;;;;;;;;;;9.10;94.93;97510.25;107640;1270;69241;-69
2022/10/25 01:03:59;;;;;;;;;;;;;;;9.09;97.28;97513.45;107586;1270;68324;-69
2022/10/25 01:06:38;;;;;;;;;;;;;;;9.08;96.55;97511.60;107619;1270;59775;-69
2022/10/25 01:09:08;;;;;;;;;;;;;;;9.07;96.60;97502.67;107688;1268;59698;-69
2022/10/25 01:11:38;;;;;;;;;;;;;;;9.08;97.58;97503.44;107667;1265;72147;-71
2022/10/25 01:14:10;;;;;;;;;;;;;;;9.08;97.05;97502.19;107645;1269;68515;-69
2022/10/25 01:17:06;;;;;;;;;;;;;;;9.10;96.16;97499.30;107661;1267;68336;-69
2022/10/25 01:19:55;;;;;;;;;;;;;;;9.11;95.67;97499.41;107597;1267;59738;-71
2022/10/25 01:22:32;;;;;;;;;;;;;;;9.13;96.47;97495.45;107653;1268;59664;-69
2022/10/25 01:25:18;;;;;;;;;;;;;;;9.15;96.19;97496.55;107655;1270;71245;-69
2022/10/25 01:28:11;;;;;;;;;;;;;;;9.17;97.44;97494.52;107628;1269;69028;-69
2022/10/25 01:30:59;;;;;;;;;;;;;;;9.14;97.60;97500.07;107651;1264;69138;-69
2022/10/25 01:33:38;;;;;;;;;;;;;;;9.10;96.77;97490.58;107664;1264;59801;-69
2022/10/25 01:36:24;;;;;;;;;;;;;;;9.09;92.41;97480.77;107694;1269;59717;-70
2022/10/25 01:38:54;;;;;;;;;;;;;;;9.07;90.55;97478.28;107638;1259;70586;-69
2022/10/25 01:41:27;;;;;;;;;;;;;;;9.03;92.15;97483.45;107685;1269;70010;-70
2022/10/25 01:44:10;;;;;;;;;;;;;;;9.00;90.96;97488.30;107644;1266;68352;-69
2022/10/25 01:46:44;;;;;;;;;;;;;;;8.99;89.20;97489.46;107671;1264;59716;-70
2022/10/25 01:49:17;;;;;;;;;;;;;;;8.97;93.74;97493.40;107673;1269;59731;-69
2022/10/25 01:51:48;;;;;;;;;;;;;;;8.94;97.59;97493.55;107662;1264;71445;-69
2022/10/25 01:54:20;;;;;;;;;;;;;;;8.93;97.96;97499.05;107674;1266;68289;-70
2022/10/25 01:57:05;;;;;;;;;;;;;;;8.92;98.60;97500.46;107654;1269;68379;-69
2022/10/25 01:59:44;;;;;;;;;;;;;;;8.91;99.26;97489.56;107685;1260;59853;-69
2022/10/25 02:02:36;;;;;;;;;;;;;;;8.91;97.54;97483.14;107673;1268;59779;-70
2022/10/25 02:05:08;;;;;;;;;;;;;;;8.93;96.74;97483.73;107677;1268;71438;-70
2022/10/25 02:08:02;;;;;;;;;;;;;;;8.95;97.81;97486.56;107681;1268;68581;-70
2022/10/25 02:10:57;;;;;;;;;;;;;;;8.97;99.16;97486.06;107677;1266;69329;-70
2022/10/25 02:13:32;;;;;;;;;;;;;;;8.99;98.71;97481.80;107575;1270;59844;-70
2022/10/25 02:16:10;;;;;;;;;;;;;;;9.00;98.57;97474.39;107604;1267;59688;-70
2022/10/25 02:18:47;;;;;;;;;;;;;;;9.02;97.17;97466.46;107725;1268;71266;-70
2022/10/25 02:21:18;;;;;;;;;;;;;;;9.05;99.22;97468.17;107690;1267;69465;-69
2022/10/25 02:23:49;;;;;;;;;;;;;;;9.04;98.47;97467.89;107666;1265;69245;-70
2022/10/25 02:26:20;;;;;;;;;;;;;;;9.01;98.47;97467.39;107673;1268;59686;-69
2022/10/25 02:28:51;;;;;;;;;;;;;;;8.97;97.53;97460.58;107674;1268;59740;-70
2022/10/25 02:31:21;;;;;;;;;;;;;;;8.93;97.06;97459.73;107673;1264;70446;-70
2022/10/25 02:33:51;;;;;;;;;;;;;;;8.92;97.49;97454.95;107618;1265;69083;-70
2022/10/25 02:36:23;;;;;;;;;;;;;;;8.92;97.79;97451.61;107656;1269;68318;-70
2022/10/25 02:38:56;;;;;;;;;;;;;;;8.95;98.66;97444.64;107619;1270;59823;-69
2022/10/25 02:41:26;;;;;;;;;;;;;;;8.97;98.19;97445.61;107652;1270;59717;-69
2022/10/25 02:43:56;;;;;;;;;;;;;;;8.99;97.75;97450.66;107619;1265;70621;-71
2022/10/25 02:46:26;;;;;;;;;;;;;;;8.98;97.73;97457.67;107607;1270;69190;-71
2022/10/25 02:48:57;;;;;;;;;;;;;;;8.97;97.20;97462.77;107640;1266;68462;-71
2022/10/25 02:51:26;;;;;;;;;;;;;;;8.96;97.13;97467.19;107725;1267;59763;-70
2022/10/25 02:53:57;;;;;;;;;;;;;;;8.95;97.14;97468.63;107672;1264;59755;-69
2022/10/25 02:56:27;;;;;;;;;;;;;;;8.94;97.11;97469.38;107649;1261;72139;-69
2022/10/25 02:58:58;;;;;;;;;;;;;;;8.94;96.93;97461.96;107600;1265;67842;-70
2022/10/25 03:01:28;;;;;;;;;;;;;;;8.94;95.12;97461.08;107603;1264;69735;-70
2022/10/25 03:04:01;;;;;;;;;;;;;;;8.93;91.69;97457.64;107616;1264;59747;-69
2022/10/25 03:06:33;;;;;;;;;;;;;;;8.89;91.52;97459.63;107651;1268;59729;-69
2022/10/25 03:09:02;;;;;;;;;;;;;;;8.84;93.99;97455.79;107666;1265;70880;-69
2022/10/25 03:11:31;;;;;;;;;;;;;;;8.79;94.98;97459.11;107688;1267;69044;-70
2022/10/25 03:14:00;;;;;;;;;;;;;;;8.73;96.02;97458.42;107648;1267;69301;-70
2022/10/25 03:16:30;;;;;;;;;;;;;;;8.68;97.01;97455.45;107703;1267;59747;-69
2022/10/25 03:19:00;;;;;;;;;;;;;;;8.63;97.08;97451.96;107667;1264;59755;-70
2022/10/25 03:21:30;;;;;;;;;;;;;;;8.58;97.74;97454.89;107686;1266;71407;-70
2022/10/25 03:24:00;;;;;;;;;;;;;;;8.52;96.44;97452.70;107667;1265;69830;-70
2022/10/25 03:26:31;;;;;;;;;;;;;;;8.48;93.98;97449.96;107713;1268;69134;-69
2022/10/25 03:29:02;;;;;;;;;;;;;;;8.48;94.31;97448.93;107702;1268;59709;-69
2022/10/25 03:31:31;;;;;;;;;;;;;;;8.47;96.16;97445.50;107663;1269;59769;-70
2022/10/25 03:34:01;;;;;;;;;;;;;;;8.46;95.03;97439.85;107668;1268;71411;-70
2022/10/25 03:36:30;;;;;;;;;;;;;;;8.47;95.24;97441.15;107598;1269;68587;-70
2022/10/25 03:39:00;;;;;;;;;;;;;;;8.49;93.76;97437.59;107615;1270;68519;-70
2022/10/25 03:41:30;;;;;;;;;;;;;;;8.49;92.76;97433.39;107645;1270;59807;-70
2022/10/25 03:43:59;;;;;;;;;;;;;;;8.50;92.30;97437.00;107657;1267;59720;-70
2022/10/25 03:46:28;;;;;;;;;;;;;;;8.51;93.65;97434.12;107601;1266;71362;-70
2022/10/25 03:48:58;;;;;;;;;;;;;;;8.53;93.77;97435.41;107725;1268;68446;-70
2022/10/25 03:51:28;;;;;;;;;;;;;;;8.55;91.65;97429.40;107728;1268;68654;-70
2022/10/25 03:53:58;;;;;;;;;;;;;;;8.61;91.91;97422.52;107650;1269;59716;-69
2022/10/25 03:56:27;;;;;;;;;;;;;;;8.67;92.72;97425.63;107633;1269;59722;-70
2022/10/25 03:58:55;;;;;;;;;;;;;;;8.71;93.69;97425.80;107647;1269;71506;-69
2022/10/25 04:01:24;;;;;;;;;;;;;;;8.72;94.47;97426.91;107608;1266;69828;-69
2022/10/25 04:03:54;;;;;;;;;;;;;;;8.71;95.28;97429.23;107608;1270;69762;-69
2022/10/25 04:06:23;;;;;;;;;;;;;;;8.71;95.43;97427.35;107608;1270;59703;-69
2022/10/25 04:08:52;;;;;;;;;;;;;;;8.69;94.38;97424.65;107656;1267;59724;-70
2022/10/25 04:11:21;;;;;;;;;;;;;;;8.68;94.30;97424.15;107623;1270;71585;-69
2022/10/25 04:13:50;;;;;;;;;;;;;;;8.68;94.50;97419.29;107633;1269;68554;-69
2022/10/25 04:16:20;;;;;;;;;;;;;;;8.68;92.15;97420.14;107584;1269;69714;-69
2022/10/25 04:18:52;;;;;;;;;;;;;;;8.70;93.02;97422.02;107644;1269;59828;-69
2022/10/25 04:21:21;;;;;;;;;;;;;;;8.70;91.05;97416.98;107643;1269;59737;-69
2022/10/25 04:23:50;;;;;;;;;;;;;;;8.70;93.24;97418.87;107645;1266;70964;-69
2022/10/25 04:26:19;;;;;;;;;;;;;;;8.66;94.77;97418.73;107647;1269;69210;-69
2022/10/25 04:28:49;;;;;;;;;;;;;;;8.61;95.51;97412.46;107591;1266;67553;-69
2022/10/25 04:31:18;;;;;;;;;;;;;;;8.59;98.20;97411.90;107643;1266;59701;-69
2022/10/25 04:33:47;;;;;;;;;;;;;;;8.57;99.31;97413.43;107646;1265;59721;-70
2022/10/25 04:36:16;;;;;;;;;;;;;;;8.55;99.87;97412.83;107627;1269;71401;-69
2022/10/25 04:38:49;;;;;;;;;;;;;;;8.52;98.33;97406.48;107548;1269;68510;-69
2022/10/25 04:41:18;;;;;;;;;;;;;;;8.49;97.45;97404.20;107604;1266;69311;-69
2022/10/25 04:43:47;;;;;;;;;;;;;;;8.48;98.21;97402.52;107633;1265;59794;-69
2022/10/25 04:46:16;;;;;;;;;;;;;;;8.51;100.00;97404.64;107645;1266;59744;-69
2022/10/25 04:48:44;;;;;;;;;;;;;;;8.49;100.00;97407.36;107642;1266;71512;-69
2022/10/25 04:51:15;;;;;;;;;;;;;;;8.47;100.00;97407.14;107620;1265;69918;-69
2022/10/25 04:53:44;;;;;;;;;;;;;;;8.45;100.00;97403.79;107647;1267;69254;-69
2022/10/25 04:56:13;;;;;;;;;;;;;;;8.42;100.00;97399.10;107665;1269;59809;-70
2022/10/25 04:58:42;;;;;;;;;;;;;;;8.39;100.00;97394.92;107666;1265;59697;-69
2022/10/25 05:01:12;;;;;;;;;;;;;;;8.37;100.00;97394.92;107646;1268;70409;-69
2022/10/25 05:03:41;;;;;;;;;;;;;;;8.35;100.00;97395.19;107622;1270;69005;-69
2022/10/25 05:06:09;;;;;;;;;;;;;;;8.34;100.00;97396.67;107601;1267;69639;-69
2022/10/25 05:08:39;;;;;;;;;;;;;;;8.34;100.00;97395.75;107621;1270;59792;-69
2022/10/25 05:11:09;;;;;;;;;;;;;;;8.41;99.69;97395.71;107677;1266;59696;-69
2022/10/25 05:13:38;;;;;;;;;;;;;;;8.49;100.00;97401.66;107654;1266;70720;-69
2022/10/25 05:16:11;;;;;;;;;;;;;;;8.56;100.00;97405.67;107572;1270;69091;-69
2022/10/25 05:18:41;;;;;;;;;;;;;;;8.62;100.00;97403.02;107656;1271;69939;-69
2022/10/25 05:21:10;;;;;;;;;;;;;;;8.69;100.00;97395.07;107624;1269;59747;-69
2022/10/25 05:23:39;;;;;;;;;;;;;;;8.78;99.35;97391.95;107649;1268;59722;-71
2022/10/25 05:26:13;;;;;;;;;;;;;;;8.85;97.86;97393.15;107612;1270;71434;-70
2022/10/25 05:28:42;;;;;;;;;;;;;;;8.94;99.49;97388.25;107635;1267;68521;-71
2022/10/25 05:31:14;;;;;;;;;;;;;;;8.99;98.96;97384.77;107599;1264;68139;-72
2022/10/25 05:33:44;;;;;;;;;;;;;;;9.07;97.62;97387.40;107602;1266;59720;-70
2022/10/25 05:36:13;;;;;;;;;;;;;;;9.13;96.79;97385.25;107622;1266;59729;-70
2022/10/25 05:38:41;;;;;;;;;;;;;;;9.19;97.03;97386.23;107580;1265;71421;-70
2022/10/25 05:41:11;;;;;;;;;;;;;;;9.24;98.58;97388.15;107644;1265;68264;-70
2022/10/25 05:43:40;;;;;;;;;;;;;;;9.30;100.00;97394.55;107653;1267;69739;-69
2022/10/25 05:46:21;;;;;;;;;;;;;;;9.35;100.00;97402.17;107640;1270;59840;-69
2022/10/25 05:48:50;;;;;;;;;;;;;;;9.43;100.00;97402.33;107689;1267;59765;-70
2022/10/25 05:51:24;;;;;;;;;;;;;;;9.50;100.00;97409.38;107659;1269;70362;-70
2022/10/25 05:54:04;;;;;;;;;;;;;;;9.57;99.57;97410.59;107611;1265;68834;-70
2022/10/25 05:56:33;;;;;;;;;;;;;;;9.65;98.66;97406.89;107596;1267;69420;-70
2022/10/25 05:59:02;;;;;;;;;;;;;;;9.73;99.28;97413.52;107627;1268;59785;-70
2022/10/25 06:01:31;;;;;;;;;;;;;;;9.70;96.01;97423.42;107671;1265;59723;-70
2022/10/25 06:04:00;;;;;;;;;;;;;;;9.68;94.08;97421.09;107625;1267;70187;-70
2022/10/25 06:06:28;;;;;;;;;;;;;;;9.73;94.87;97421.83;107651;1268;68432;-70
2022/10/25 06:08:57;;;;;;;;;;;;;;;9.81;95.66;97422.64;107585;1270;69974;-71
2022/10/25 06:11:29;;;;;;;;;;;;;;;9.89;95.53;97421.06;107646;1270;59772;-71
2022/10/25 06:13:58;;;;;;;;;;;;;;;10.02;95.61;97419.48;107613;1266;59655;-71
2022/10/25 06:16:26;;;;;;;;;;;;;;;10.11;96.05;97416.70;107612;1268;71403;-71
2022/10/25 06:18:55;;;;;;;;;;;;;;;10.18;95.76;97416.94;107654;1269;69062;-71
2022/10/25 06:21:25;;;;;;;;;;;;;;;10.25;95.63;97406.03;107605;1267;68750;-71
2022/10/25 06:23:54;;;;;;;;;;;;;;;10.35;96.36;97405.65;107666;1270;59786;-70
2022/10/25 06:26:25;;;;;;;;;;;;;;;10.42;96.09;97411.44;107638;1270;59753;-71
2022/10/25 06:28:55;;;;;;;;;;;;;;;10.51;95.22;97410.23;107634;1269;71719;-71
2022/10/25 06:31:24;;;;;;;;;;;;;;;10.63;95.14;97404.32;107451;1268;69772;-71
2022/10/25 06:33:53;;;;;;;;;;;;;;;10.76;96.26;97400.77;107624;1267;70020;-71
2022/10/25 06:36:22;;;;;;;;;;;;;;;10.89;95.71;97405.16;107617;1270;59789;-71
2022/10/25 06:38:53;;;;;;;;;;;;;;;11.02;93.97;97404.09;107594;1270;59746;-71
2022/10/25 06:41:26;;;;;;;;;;;;;;;11.13;93.28;97397.29;107614;1267;71787;-71
2022/10/25 06:43:55;;;;;;;;;;;;;;;11.28;93.25;97391.96;107645;1265;69105;-71
2022/10/25 06:46:27;;;;;;;;;;;;;;;11.41;92.58;97386.63;107630;1270;69455;-71
2022/10/25 06:48:56;;;;;;;;;;;;;;;11.53;92.87;97385.17;107624;1266;59749;-71
2022/10/25 06:51:25;;;;;;;;;;;;;;;11.66;91.95;97389.61;107607;1265;59771;-71
2022/10/25 06:53:55;;;;;;;;;;;;;;;11.87;91.47;97389.54;107677;1266;70829;-71
2022/10/25 06:56:23;;;;;;;;;;;;;;;12.12;89.64;97383.02;107696;1271;69838;-70
2022/10/25 06:58:52;;;;;;;;;;;;;;;12.36;89.63;97388.16;107755;1266;69791;-71
2022/10/25 07:01:21;;;;;;;;;;;;;;;12.41;88.35;97388.95;107643;1271;59742;-72
2022/10/25 07:03:52;;;;;;;;;;;;;;;12.37;87.04;97390.69;107648;1265;59772;-71
2022/10/25 07:06:24;;;;;;;;;;;;;;;12.29;87.23;97395.85;107690;1267;72064;-71
2022/10/25 07:08:54;;;;;;;;;;;;;;;12.11;86.53;97400.77;107635;1267;69081;-71
2022/10/25 07:11:23;;;;;;;;;;;;;;;11.82;87.70;97403.05;107641;1267;69298;-71
2022/10/25 07:13:51;;;;;;;;;;;;;;;11.65;89.41;97402.75;107654;1270;59768;-71
2022/10/25 07:16:20;;;;;;;;;;;;;;;11.67;91.00;97397.21;107626;1265;59774;-71
2022/10/25 07:18:49;;;;;;;;;;;;;;;11.84;90.72;97398.87;107625;1265;72530;-71
2022/10/25 07:21:21;;;;;;;;;;;;;;;11.99;90.06;97384.92;107675;1267;69811;-71
2022/10/25 07:23:50;;;;;;;;;;;;;;;12.16;89.42;97385.86;107633;1264;69448;-71
2022/10/25 07:26:24;;;;;;;;;;;;;;;12.28;89.04;97382.67;107328;1270;420744;-71
2022/10/25 07:28:54;;;;;;;;;;;;;;;12.36;88.62;97387.95;107634;1271;59783;-72
2022/10/25 07:31:24;;;;;;;;;;;;;;;12.40;88.81;97395.98;107644;1269;71507;-71
2022/10/25 07:33:55;;;;;;;;;;;;;;;12.39;89.11;97394.13;107622;1267;68481;-71
2022/10/25 07:36:24;;;;;;;;;;;;;;;12.41;87.68;97391.58;107658;1267;69404;-70
2022/10/25 07:38:53;;;;;;;;;;;;;;;12.45;87.72;97389.44;107598;1268;59748;-70
2022/10/25 07:41:22;;;;;;;;;;;;;;;12.51;88.04;97387.05;107628;1269;60089;-70
2022/10/25 07:43:51;;;;;;;;;;;;;;;12.57;88.07;97377.46;107665;1260;71404;-70
2022/10/25 07:46:19;;;;;;;;;;;;;;;12.64;88.45;97375.87;107636;1268;69243;-69
2022/10/25 07:48:48;;;;;;;;;;;;;;;12.70;89.31;97379.70;107647;1267;68685;-69
2022/10/25 07:51:16;;;;;;;;;;;;;;;12.78;88.86;97381.41;107621;1267;59766;-69
2022/10/25 07:53:45;;;;;;;;;;;;;;;12.85;88.25;97386.43;107626;1269;59658;-71
2022/10/25 07:56:16;;;;;;;;;;;;;;;12.90;88.75;97382.45;107667;1265;72062;-71
2022/10/25 07:58:51;;;;;;;;;;;;;;;12.95;88.65;97385.22;107661;1265;70095;-71
2022/10/25 08:01:21;;;;;;;;;;;;;;;12.98;89.10;97388.77;107633;1269;70095;-71
2022/10/25 08:03:51;;;;;;;;;;;;;;;13.00;89.42;97390.54;107665;1269;59813;-70
2022/10/25 08:06:20;;;;;;;;;;;;;;;12.99;90.00;97393.78;107644;1269;59778;-70
2022/10/25 08:08:49;;;;;;;;;;;;;;;12.96;90.11;97391.08;107672;1267;71900;-71
2022/10/25 08:11:18;;;;;;;;;;;;;;;12.94;88.68;97388.28;107639;1269;69796;-71
2022/10/25 08:13:47;;;;;;;;;;;;;;;12.88;87.92;97389.08;107635;1267;69083;-71
2022/10/25 08:16:16;;;;;;;;;;;;;;;12.84;87.71;97388.41;107652;1267;59688;-71
2022/10/25 08:18:44;;;;;;;;;;;;;;;12.79;87.96;97388.68;107629;1268;59724;-70
2022/10/25 08:21:13;;;;;;;;;;;;;;;12.71;88.27;97384.41;107587;1265;72056;-71
2022/10/25 08:23:41;;;;;;;;;;;;;;;12.67;88.73;97382.96;107622;1267;69157;-71
2022/10/25 08:26:09;;;;;;;;;;;;;;;12.65;89.22;97382.41;107555;1269;68946;-71
2022/10/25 08:28:38;;;;;;;;;;;;;;;12.65;89.40;97382.98;107638;1270;59767;-71
2022/10/25 08:31:07;;;;;;;;;;;;;;;12.62;89.73;97388.27;107670;1270;59692;-71
2022/10/25 08:33:36;;;;;;;;;;;;;;;12.61;89.47;97387.33;107695;1268;71400;-71
2022/10/25 08:36:05;;;;;;;;;;;;;;;12.61;89.55;97387.11;107627;1266;70280;-71
2022/10/25 08:38:33;;;;;;;;;;;;;;;12.62;89.90;97388.46;107611;1269;68707;-71
2022/10/25 08:41:21;;;;;;;;;;;;;;;12.65;90.16;97392.93;107681;1267;59787;-71
2022/10/25 08:44:04;;;;;;;;;;;;;;;12.70;89.03;97393.39;107649;1269;59678;-71
2022/10/25 08:46:38;;;;;;;;;;;;;;;12.78;88.94;97389.45;107650;1270;71659;-71
2022/10/25 08:49:15;;;;;;;;;;;;;;;12.85;88.51;97386.58;107655;1268;68461;-71
2022/10/25 08:51:45;;;;;;;;;;;;;;;12.92;87.73;97391.58;107639;1271;69897;-71
2022/10/25 08:54:20;;;;;;;;;;;;;;;12.99;88.24;97392.23;107620;1270;59755;-71
2022/10/25 08:56:51;;;;;;;;;;;;;;;13.06;88.45;97390.98;107642;1269;59727;-71
2022/10/25 08:59:40;;;;;;;;;;;;;;;13.14;87.97;97391.84;107607;1269;71782;-70
2022/10/25 09:02:14;;;;;;;;;;;;;;;13.21;87.49;97396.46;107639;1267;69873;-70
2022/10/25 09:04:43;;;;;;;;;;;;;;;13.30;87.48;97399.01;107643;1269;69923;-70
2022/10/25 09:07:18;;;;;;;;;;;;;;;13.37;87.78;97395.77;107634;1270;59697;-70
2022/10/25 09:10:07;;;;;;;;;;;;;;;13.46;86.56;97395.16;107642;1265;59766;-70
2022/10/25 09:12:52;;;;;;;;;;;;;;;13.53;86.49;97390.53;107634;1271;70699;-70
2022/10/25 09:15:37;;;;;;;;;;;;;;;13.63;86.91;97390.41;107670;1267;68401;-70
2022/10/25 09:18:13;;;;;;;;;;;;;;;13.77;86.54;97389.20;107611;1270;69199;-70
2022/10/25 09:20:49;;;;;;;;;;;;;;;13.92;85.83;97388.09;107647;1267;59758;-70
2022/10/25 09:23:21;;;;;;;;;;;;;;;14.06;85.68;97385.83;107648;1268;59771;-70
2022/10/25 09:26:09;;;;;;;;;;;;;;;14.21;86.08;97387.48;107595;1269;71638;-70
2022/10/25 09:28:37;;;;;;;;;;;;;;;14.40;86.57;97386.96;107624;1270;69288;-70
2022/10/25 09:31:09;;;;;;;;;;;;;;;14.57;86.35;97387.42;107643;1267;69898;-70
2022/10/25 09:33:40;;;;;;;;;;;;;;;14.74;84.59;97388.55;107630;1270;59783;-70
2022/10/25 09:36:09;;;;;;;;;;;;;;;14.90;83.47;97384.64;107666;1269;59748;-70
2022/10/25 09:38:57;;;;;;;;;;;;;;;15.09;83.29;97384.15;107646;1267;71986;-70
2022/10/25 09:41:32;;;;;;;;;;;;;;;15.29;82.21;97389.65;107621;1265;69247;-70
2022/10/25 09:44:20;;;;;;;;;;;;;;;15.55;81.47;97391.84;107602;1270;68496;-71
2022/10/25 09:47:04;;;;;;;;;;;;;;;15.89;80.87;97395.19;107593;1269;59765;-70
2022/10/25 09:49:37;;;;;;;;;;;;;;;16.14;78.54;97401.59;107598;1269;59747;-71
2022/10/25 09:52:24;;;;;;;;;;;;;;;16.26;76.26;97399.67;107626;1266;71443;-71
2022/10/25 09:55:13;;;;;;;;;;;;;;;16.41;76.78;97400.57;107658;1266;69944;-71
2022/10/25 09:57:42;;;;;;;;;;;;;;;16.50;75.43;97397.06;107525;1270;69915;-71
2022/10/25 10:00:13;;;;;;;;;;;;;;;16.49;76.71;97399.76;107650;1267;59785;-71
2022/10/25 10:02:42;;;;;;;;;;;;;;;16.45;75.99;97398.23;107662;1267;59689;-71
2022/10/25 10:05:14;;;;;;;;;;;;;;;16.39;74.92;97401.30;107607;1269;71811;-71
2022/10/25 10:07:44;;;;;;;;;;;;;;;16.32;75.01;97397.17;107602;1269;69896;-71
2022/10/25 10:10:21;;;;;;;;;;;;;;;16.19;74.40;97397.76;107628;1268;70065;-71
2022/10/25 10:13:02;;;;;;;;;;;;;;;16.04;74.56;97396.48;107644;1270;59760;-71
2022/10/25 10:15:37;;;;;;;;;;;;;;;15.85;75.21;97395.05;107653;1269;59712;-71
2022/10/25 10:18:24;;;;;;;;;;;;;;;15.69;76.04;97396.12;107630;1269;71822;-70
2022/10/25 10:20:58;;;;;;;;;;;;;;;15.62;76.24;97400.17;107613;1267;69600;-70
2022/10/25 10:23:28;;;;;;;;;;;;;;;15.49;75.63;97395.54;107606;1270;69341;-70
2022/10/25 10:26:00;;;;;;;;;;;;;;;15.36;74.36;97398.36;107602;1271;59726;-70
2022/10/25 10:28:29;;;;;;;;;;;;;;;15.21;74.98;97397.80;107638;1270;60153;-70
2022/10/25 10:30:58;;;;;;;;;;;;;;;15.17;75.55;97396.95;107641;1266;71376;-70
2022/10/25 10:33:30;;;;;;;;;;;;;;;15.16;76.38;97398.61;107650;1269;68789;-70
2022/10/25 10:36:17;;;;;;;;;;;;;;;15.14;78.09;97395.43;107632;1267;70279;-70
2022/10/25 10:38:46;;;;;;;;;;;;;;;15.10;78.07;97395.45;107609;1267;59759;-70
2022/10/25 10:41:22;;;;;;;;;;;;;;;15.04;77.30;97397.44;107620;1263;59709;-70
2022/10/25 10:44:05;;;;;;;;;;;;;;;14.98;77.46;97400.36;107634;1267;72158;-70
2022/10/25 10:46:33;;;;;;;;;;;;;;;14.93;77.63;97399.64;107664;1267;68464;-71
2022/10/25 10:49:02;;;;;;;;;;;;;;;14.93;77.60;97404.73;107651;1270;69883;-70
2022/10/25 10:51:37;;;;;;;;;;;;;;;14.95;76.93;97398.88;107639;1267;59727;-70
2022/10/25 10:54:18;;;;;;;;;;;;;;;15.00;76.83;97398.44;107648;1271;59713;-71
2022/10/25 10:56:54;;;;;;;;;;;;;;;15.05;76.53;97392.06;107664;1257;72393;-70
2022/10/25 10:59:28;;;;;;;;;;;;;;;15.10;76.10;97391.38;107645;1269;68711;-70
2022/10/25 11:01:57;;;;;;;;;;;;;;;15.11;76.12;97392.89;107654;1271;69930;-70
2022/10/25 11:04:25;;;;;;;;;;;;;;;15.13;76.66;97391.34;107658;1271;59714;-70
2022/10/25 11:07:11;;;;;;;;;;;;;;;15.17;77.30;97392.16;107657;1270;59717;-70
2022/10/25 11:09:39;;;;;;;;;;;;;;;15.24;77.19;97391.35;107632;1270;69625;-70
2022/10/25 11:12:13;;;;;;;;;;;;;;;15.32;76.21;97388.31;107627;1268;68597;-70
2022/10/25 11:14:42;;;;;;;;;;;;;;;15.48;76.26;97384.89;107609;1269;69341;-71
2022/10/25 11:17:16;;;;;;;;;;;;;;;15.71;75.74;97379.45;107627;1265;59796;-70
2022/10/25 11:20:03;;;;;;;;;;;;;;;16.04;75.46;97376.70;107626;1268;59729;-71
2022/10/25 11:22:53;;;;;;;;;;;;;;;16.51;73.20;97373.56;107636;1267;70952;-71
2022/10/25 11:25:32;;;;;;;;;;;;;;;17.21;71.46;97372.31;107662;1271;69034;-71
2022/10/25 11:28:06;;;;;;;;;;;;;;;17.80;66.19;97375.33;107660;1269;69762;-71
2022/10/25 11:30:41;;;;;;;;;;;;;;;18.14;65.68;97379.39;107609;1271;59716;-71
2022/10/25 11:33:22;;;;;;;;;;;;;;;18.31;65.16;97379.67;107692;1267;59650;-71
2022/10/25 11:36:02;;;;;;;;;;;;;;;18.36;65.16;97383.29;107594;1265;71006;-71
2022/10/25 11:38:43;;;;;;;;;;;;;;;18.24;64.30;97384.29;107650;1267;69952;-71
2022/10/25 11:41:12;;;;;;;;;;;;;;;18.15;65.57;97388.98;107636;1270;70341;-71
2022/10/25 11:43:59;;;;;;;;;;;;;;;18.02;65.47;97385.48;107645;1268;59758;-71
2022/10/25 11:46:57;;;;;;;;;;;;;;;17.84;64.88;97386.69;107630;1265;59702;-71
2022/10/25 11:49:44;;;;;;;;;;;;;;;17.69;65.13;97382.05;107584;1270;72008;-72
2022/10/25 11:52:16;;;;;;;;;;;;;;;17.53;63.46;97382.80;107608;1269;69976;-70
2022/10/25 11:54:48;;;;;;;;;;;;;;;17.41;65.08;97388.06;107660;1267;69250;-70
2022/10/25 11:57:31;;;;;;;;;;;;;;;17.29;65.21;97391.61;107569;1267;59745;-70
2022/10/25 12:00:10;;;;;;;;;;;;;;;17.09;65.19;97394.09;107598;1269;59788;-70
2022/10/25 12:02:44;;;;;;;;;;;;;;;16.91;65.31;97395.89;107644;1267;71359;-70
2022/10/25 12:05:31;;;;;;;;;;;;;;;16.76;66.31;97399.83;107589;1271;68692;-70
2022/10/25 12:08:21;;;;;;;;;;;;;;;16.62;66.74;97401.70;107636;1266;69451;-70
2022/10/25 12:11:12;;;;;;;;;;;;;;;16.48;67.38;97403.20;107622;1270;60075;-70
2022/10/25 12:13:50;;;;;;;;;;;;;;;16.31;67.31;97410.52;107628;1267;59790;-70
2022/10/25 12:16:20;;;;;;;;;;;;;;;16.17;67.80;97413.80;107670;1267;71907;-70
2022/10/25 12:18:51;;;;;;;;;;;;;;;15.99;68.19;97418.46;107609;1267;67966;-70
2022/10/25 12:21:29;;;;;;;;;;;;;;;15.84;68.91;97420.23;107546;1271;69135;-70
2022/10/25 12:23:59;;;;;;;;;;;;;;;15.72;69.18;97424.02;107605;1267;59763;-70
2022/10/25 12:26:27;;;;;;;;;;;;;;;15.59;69.83;97428.20;107649;1269;59712;-71
2022/10/25 12:28:58;;;;;;;;;;;;;;;15.47;70.10;97426.69;107621;1267;72532;-70
2022/10/25 12:31:38;;;;;;;;;;;;;;;15.30;71.31;97426.81;107653;1271;69025;-70
2022/10/25 12:34:25;;;;;;;;;;;;;;;15.02;72.48;97427.39;107615;1270;69370;-70
2022/10/25 12:37:00;;;;;;;;;;;;;;;14.96;72.81;97432.52;107620;1269;59773;-70
2022/10/25 12:39:34;;;;;;;;;;;;;;;14.91;72.42;97431.25;107639;1270;59710;-70
2022/10/25 12:42:05;;;;;;;;;;;;;;;14.85;72.48;97428.98;107615;1267;71444;-70
2022/10/25 12:44:46;;;;;;;;;;;;;;;14.79;72.95;97429.48;107656;1267;69324;-70
2022/10/25 12:47:18;;;;;;;;;;;;;;;14.73;73.27;97435.50;107622;1265;69088;-70
2022/10/25 12:49:49;;;;;;;;;;;;;;;14.67;74.88;97433.55;107643;1271;59741;-70
2022/10/25 12:52:38;;;;;;;;;;;;;;;14.56;77.22;97439.27;107624;1271;59774;-70
2022/10/25 12:55:18;;;;;;;;;;;;;;;14.51;77.10;97439.52;107613;1271;71974;-70
2022/10/25 12:57:56;;;;;;;;;;;;;;;14.49;78.69;97442.31;107620;1270;69928;-70
2022/10/25 13:00:28;;;;;;;;;;;;;;;14.44;78.73;97449.78;107635;1270;68593;-70
2022/10/25 13:03:08;;;;;;;;;;;;;;;14.41;78.19;97456.00;107632;1270;59744;-70
2022/10/25 13:05:43;;;;;;;;;;;;;;;14.32;79.14;97459.07;107656;1271;59726;-70
2022/10/25 13:08:15;;;;;;;;;;;;;;;14.20;80.11;97460.40;107639;1269;72350;-70
2022/10/25 13:10:55;;;;;;;;;;;;;;;14.12;81.20;97460.07;107514;1271;69288;-70